createdAt,value
2016-08-11T00:00:37.354Z,98.03
2016-08-11T00:01:37.351Z,97.93
2016-08-11T00:02:37.340Z,97.36
2016-08-11T00:03:37.333Z,97.74
2016-08-11T00:04:37.329Z,98.12
2016-08-11T00:05:37.322Z,97.74
2016-08-11T00:06:37.310Z,97.93
2016-08-11T00:07:37.307Z,97.93
2016-08-11T00:08:37.303Z,97.93
2016-08-11T00:09:37.290Z,98.03
2016-08-11T00:10:37.282Z,97.55
2016-08-11T00:11:37.278Z,97.55
2016-08-11T00:12:37.265Z,97.45
2016-08-11T00:13:37.258Z,97.83
2016-08-11T00:14:37.250Z,97.45
2016-08-11T00:15:37.245Z,97.45
2016-08-11T00:16:37.234Z,97.93
2016-08-11T00:17:37.232Z,98.12
2016-08-11T00:18:37.221Z,97.78
2016-08-11T00:20:37.203Z,97.78
2016-08-11T00:21:37.699Z,98.22
2016-08-11T00:22:37.190Z,98.31
2016-08-11T00:23:37.233Z,98.03
2016-08-11T00:24:37.177Z,97.83
2016-08-11T00:25:37.180Z,97.78
2016-08-11T00:26:37.166Z,98.07
2016-08-11T00:27:37.153Z,97.78
2016-08-11T00:28:37.146Z,97.97
2016-08-11T00:29:37.133Z,98.07
2016-08-11T00:30:38.185Z,98.26
2016-08-11T00:31:37.372Z,97.97
2016-08-11T00:32:37.118Z,97.97
2016-08-11T00:33:37.112Z,98.26
2016-08-11T00:34:37.108Z,97.88
2016-08-11T00:35:37.344Z,97.78
2016-08-11T00:36:37.537Z,98.07
2016-08-11T00:37:37.080Z,97.69
2016-08-11T00:38:37.064Z,97.6
2016-08-11T00:39:37.059Z,97.5
2016-08-11T00:40:37.050Z,97.5
2016-08-11T00:41:37.051Z,97.5
2016-08-11T00:42:38.558Z,97.31
2016-08-11T00:43:38.339Z,97.31
2016-08-11T00:44:38.160Z,97.78
2016-08-11T00:45:37.913Z,97.6
2016-08-11T00:46:37.230Z,97.6
2016-08-11T00:47:37.548Z,97.5
2016-08-11T00:48:37.450Z,97.6
2016-08-11T00:49:36.979Z,97.69
2016-08-11T00:50:36.977Z,97.69
2016-08-11T00:51:36.974Z,97.78
2016-08-11T00:52:38.545Z,98.26
2016-08-11T00:53:36.955Z,97.97
2016-08-11T00:54:37.657Z,97.78
2016-08-11T00:55:36.942Z,97.88
2016-08-11T00:56:37.298Z,97.97
2016-08-11T00:57:36.919Z,97.69
2016-08-11T00:58:37.107Z,97.78
2016-08-11T00:59:36.904Z,97.31
2016-08-11T01:00:36.902Z,97.78
2016-08-11T01:01:36.895Z,97.97
2016-08-11T01:02:36.884Z,98.07
2016-08-11T01:03:36.876Z,98.07
2016-08-11T01:04:36.869Z,97.88
2016-08-11T01:05:36.858Z,97.88
2016-08-11T01:06:36.852Z,98.07
2016-08-11T01:07:37.548Z,98.07
2016-08-11T01:08:36.835Z,98.07
2016-08-11T01:09:36.880Z,97.78
2016-08-11T01:10:36.827Z,97.88
2016-08-11T01:11:36.813Z,97.78
2016-08-11T01:12:36.809Z,97.88
2016-08-11T01:13:36.804Z,97.88
2016-08-11T01:14:36.792Z,97.88
2016-08-11T01:15:36.788Z,98.07
2016-08-11T01:16:36.776Z,98.07
2016-08-11T01:17:36.765Z,97.88
2016-08-11T01:18:36.760Z,98.07
2016-08-11T01:19:36.754Z,97.88
2016-08-11T01:20:36.752Z,98.36
2016-08-11T01:21:36.737Z,97.97
2016-08-11T01:22:36.737Z,98.07
2016-08-11T01:23:36.723Z,98.36
2016-08-11T01:24:36.710Z,98.07
2016-08-11T01:25:36.708Z,97.97
2016-08-11T01:26:36.694Z,98.26
2016-08-11T01:27:36.697Z,98.26
2016-08-11T01:28:36.681Z,98.26
2016-08-11T01:29:36.679Z,97.97
2016-08-11T01:30:36.662Z,98.17
2016-08-11T01:31:36.658Z,98.26
2016-08-11T01:32:36.653Z,97.97
2016-08-11T01:33:36.638Z,97.97
2016-08-11T01:34:36.632Z,98.26
2016-08-11T01:35:36.629Z,97.97
2016-08-11T01:36:36.620Z,97.78
2016-08-11T01:37:36.610Z,98.07
2016-08-11T01:38:36.600Z,98.45
2016-08-11T01:39:37.844Z,98.26
2016-08-11T01:40:36.591Z,98.26
2016-08-11T01:41:37.526Z,98.26
2016-08-11T01:42:36.586Z,97.88
2016-08-11T01:43:36.565Z,98.45
2016-08-11T01:44:36.716Z,98.07
2016-08-11T01:45:36.549Z,98.07
2016-08-11T01:46:36.536Z,97.97
2016-08-11T01:47:36.532Z,97.97
2016-08-11T01:48:51.439Z,98.36
2016-08-11T01:50:37.009Z,98.45
2016-08-11T01:51:36.500Z,98.36
2016-08-11T01:52:36.495Z,98.26
2016-08-11T01:53:36.891Z,98.64
2016-08-11T01:54:36.473Z,98.64
2016-08-11T01:55:36.465Z,98.64
2016-08-11T01:56:36.457Z,98.64
2016-08-11T01:57:36.453Z,98.45
2016-08-11T01:59:36.434Z,98.36
2016-08-11T02:00:37.259Z,98.45
2016-08-11T02:01:37.548Z,98.45
2016-08-11T02:02:37.931Z,98.36
2016-08-11T02:03:36.400Z,98.55
2016-08-11T02:04:36.403Z,98.26
2016-08-11T02:05:36.959Z,98.17
2016-08-11T02:06:36.382Z,98.17
2016-08-11T02:07:36.375Z,98.26
2016-08-11T02:08:36.361Z,98.26
2016-08-11T02:10:37.468Z,98.45
2016-08-11T02:11:36.431Z,98.36
2016-08-11T02:12:37.301Z,98.36
2016-08-11T02:14:36.692Z,98.45
2016-08-11T02:15:36.308Z,98.55
2016-08-11T02:16:36.299Z,98.36
2016-08-11T02:17:36.291Z,98.36
2016-08-11T02:18:36.286Z,98.02
2016-08-11T02:19:36.280Z,98.31
2016-08-11T02:20:36.268Z,98.4
2016-08-11T02:21:36.266Z,98.02
2016-08-11T02:22:36.250Z,98.21
2016-08-11T02:23:36.247Z,98.02
2016-08-11T02:24:36.234Z,98.26
2016-08-11T02:25:36.229Z,98.4
2016-08-11T02:26:36.222Z,98.12
2016-08-11T02:27:36.213Z,98.4
2016-08-11T02:29:36.198Z,98.21
2016-08-11T02:30:36.189Z,98.4
2016-08-11T02:31:36.180Z,98.4
2016-08-11T02:32:36.169Z,98.31
2016-08-11T02:33:36.165Z,98.12
2016-08-11T02:34:36.154Z,98.12
2016-08-11T02:35:36.144Z,98.02
2016-08-11T02:36:36.143Z,98.31
2016-08-11T02:37:36.130Z,98.31
2016-08-11T02:38:36.820Z,98.12
2016-08-11T02:39:36.110Z,98.21
2016-08-11T02:40:36.106Z,98.4
2016-08-11T02:43:36.086Z,98.5
2016-08-11T02:44:36.072Z,98.4
2016-08-11T02:45:36.069Z,98.59
2016-08-11T02:46:36.055Z,98.59
2016-08-11T02:47:36.052Z,98.59
2016-08-11T02:48:36.040Z,98.59
2016-08-11T02:49:36.038Z,98.4
2016-08-11T02:50:36.021Z,98.4
2016-08-11T02:51:36.020Z,98.5
2016-08-11T02:52:36.014Z,98.21
2016-08-11T02:53:35.996Z,98.12
2016-08-11T02:54:35.991Z,98.31
2016-08-11T02:55:35.986Z,98.21
2016-08-11T02:56:35.975Z,98.31
2016-08-11T02:57:35.968Z,98.02
2016-08-11T02:58:35.956Z,97.83
2016-08-11T02:59:35.961Z,98.21
2016-08-11T03:00:35.948Z,98.31
2016-08-11T03:02:36.174Z,98.21
2016-08-11T03:03:35.914Z,98.21
2016-08-11T03:04:35.907Z,98.12
2016-08-11T03:05:35.898Z,98.12
2016-08-11T03:06:35.893Z,97.83
2016-08-11T03:08:36.779Z,98.12
2016-08-11T03:09:35.864Z,98.12
2016-08-11T03:10:36.412Z,97.92
2016-08-11T03:11:36.302Z,98.02
2016-08-11T03:12:36.543Z,98.02
2016-08-11T03:13:36.184Z,98.02
2016-08-11T03:14:35.823Z,98.02
2016-08-11T03:15:35.820Z,97.64
2016-08-11T03:16:35.812Z,98.02
2016-08-11T03:17:35.802Z,97.64
2016-08-11T03:18:35.797Z,98.02
2016-08-11T03:19:36.505Z,98.02
2016-08-11T03:20:35.779Z,98.12
2016-08-11T03:21:36.691Z,98.02
2016-08-11T03:22:36.418Z,98.02
2016-08-11T03:23:35.863Z,97.83
2016-08-11T03:24:35.752Z,98.02
2016-08-11T03:25:35.729Z,97.83
2016-08-11T03:26:35.726Z,98.21
2016-08-11T03:27:36.415Z,97.92
2016-08-11T03:28:36.455Z,98.31
2016-08-11T03:29:36.169Z,97.74
2016-08-11T03:30:35.693Z,98.31
2016-08-11T03:31:35.698Z,98.21
2016-08-11T03:32:35.673Z,98.21
2016-08-11T03:33:35.666Z,98.12
2016-08-11T03:34:35.668Z,98.02
2016-08-11T03:35:35.647Z,98.4
2016-08-11T03:36:35.640Z,98.5
2016-08-11T03:37:35.636Z,98.12
2016-08-11T03:38:35.623Z,98.4
2016-08-11T03:39:35.617Z,98.59
2016-08-11T03:40:35.611Z,98.31
2016-08-11T03:41:35.595Z,98.4
2016-08-11T03:42:35.590Z,98.4
2016-08-11T03:43:35.583Z,98.31
2016-08-11T03:44:35.575Z,98.12
2016-08-11T03:45:35.563Z,98.31
2016-08-11T03:46:35.562Z,98.12
2016-08-11T03:47:35.552Z,98.21
2016-08-11T03:48:35.544Z,98.5
2016-08-11T03:49:35.530Z,98.31
2016-08-11T03:50:35.531Z,98.12
2016-08-11T03:51:35.518Z,98.31
2016-08-11T03:53:35.499Z,98.12
2016-08-11T03:54:35.490Z,98.21
2016-08-11T03:55:35.487Z,98.02
2016-08-11T03:56:36.168Z,98.21
2016-08-11T03:57:35.461Z,98.31
2016-08-11T03:58:35.457Z,98.5
2016-08-11T03:59:35.459Z,98.21
2016-08-11T04:00:35.440Z,98.4
2016-08-11T04:01:35.429Z,98.21
2016-08-11T04:02:35.420Z,98.79
2016-08-11T04:03:35.412Z,98.59
2016-08-11T04:04:35.400Z,98.69
2016-08-11T04:05:35.405Z,98.4
2016-08-11T04:06:35.386Z,98.69
2016-08-11T04:07:35.381Z,98.59
2016-08-11T04:08:35.374Z,98.88
2016-08-11T04:09:35.362Z,98.69
2016-08-11T04:10:35.355Z,98.79
2016-08-11T04:11:35.348Z,98.59
2016-08-11T04:12:35.338Z,98.79
2016-08-11T04:13:35.333Z,98.83
2016-08-11T04:14:35.328Z,98.83
2016-08-11T04:15:35.312Z,99.21
2016-08-11T04:16:35.304Z,98.93
2016-08-11T04:17:35.300Z,98.93
2016-08-11T04:18:35.396Z,98.83
2016-08-11T04:19:35.280Z,98.83
2016-08-11T04:20:35.276Z,99.5
2016-08-11T04:21:35.279Z,99.4
2016-08-11T04:22:35.606Z,99.59
2016-08-11T04:23:35.250Z,99.36
2016-08-11T04:24:35.243Z,99.26
2016-08-11T04:25:35.535Z,99.55
2016-08-11T04:26:35.881Z,99.26
2016-08-11T04:27:35.424Z,99.99
2016-08-11T04:28:35.227Z,99.69
2016-08-11T04:29:35.209Z,99.98
2016-08-11T04:30:35.202Z,99.99
2016-08-11T04:31:35.194Z,99.99
2016-08-11T04:32:35.190Z,99.99
2016-08-11T04:33:35.184Z,99.99
2016-08-11T04:34:35.170Z,99.99
2016-08-11T04:35:35.173Z,99.99
2016-08-11T04:36:35.166Z,99.99
2016-08-11T04:37:35.465Z,99.99
2016-08-11T04:38:35.361Z,99.99
2016-08-11T04:39:35.158Z,99.99
2016-08-11T04:40:35.403Z,99.99
2016-08-11T04:41:35.397Z,99.85
2016-08-11T04:42:35.128Z,99.99
2016-08-11T04:43:35.529Z,99.8
2016-08-11T04:44:35.119Z,99.23
2016-08-11T04:45:35.117Z,98.9
2016-08-11T04:46:35.426Z,99.08
2016-08-11T04:47:35.914Z,98.23
2016-08-11T04:48:36.056Z,98.28
2016-08-11T04:49:35.102Z,97.71
2016-08-11T04:50:35.137Z,97.47
2016-08-11T04:51:35.094Z,96.7
2016-08-11T04:52:35.094Z,96.27
2016-08-11T04:53:35.090Z,96.08
2016-08-11T04:54:35.087Z,95.46
2016-08-11T04:55:35.090Z,94.12
2016-08-11T04:56:35.082Z,94.26
2016-08-11T04:57:35.087Z,93.12
2016-08-11T04:58:35.086Z,92.78
2016-08-11T04:59:35.794Z,91.44
2016-08-11T05:00:35.082Z,90.96
2016-08-11T05:01:35.080Z,90.72
2016-08-11T05:02:35.077Z,90.05
2016-08-11T05:03:35.075Z,88.75
2016-08-11T05:04:35.079Z,88.12
2016-08-11T05:05:35.075Z,87.64
2016-08-11T05:06:35.076Z,86.88
2016-08-11T05:07:35.079Z,86.72
2016-08-11T05:08:35.080Z,85.28
2016-08-11T05:09:35.076Z,85.91
2016-08-11T05:10:35.081Z,84.95
2016-08-11T05:11:35.078Z,85.42
2016-08-11T05:12:35.084Z,84.6
2016-08-11T05:13:35.078Z,83.74
2016-08-11T05:14:35.087Z,83.2
2016-08-11T05:15:35.087Z,83.4
2016-08-11T05:16:35.088Z,82.96
2016-08-11T05:17:35.083Z,82.38
2016-08-11T05:18:35.091Z,81.65
2016-08-11T05:19:35.098Z,81.84
2016-08-11T05:20:35.096Z,81.17
2016-08-11T05:21:35.101Z,81.12
2016-08-11T05:22:35.101Z,80.44
2016-08-11T05:23:35.105Z,80
2016-08-11T05:24:35.107Z,79.36
2016-08-11T05:25:35.117Z,78.69
2016-08-11T05:26:35.118Z,77.76
2016-08-11T05:27:35.123Z,77.09
2016-08-11T05:28:35.121Z,76.61
2016-08-11T05:29:35.147Z,76.26
2016-08-11T05:30:35.133Z,75.88
2016-08-11T05:31:35.141Z,75.34
2016-08-11T05:32:35.142Z,74.37
2016-08-11T05:33:35.153Z,73.25
2016-08-11T05:34:36.409Z,72.19
2016-08-11T05:35:35.161Z,71.16
2016-08-11T05:36:35.175Z,69.52
2016-08-11T05:37:50.095Z,68.98
2016-08-11T05:38:35.181Z,68.2
2016-08-11T05:39:35.201Z,68.04
2016-08-11T05:40:35.194Z,66.98
2016-08-11T05:41:35.207Z,65.75
2016-08-11T05:42:35.209Z,64.89
2016-08-11T05:43:36.119Z,64.34
2016-08-11T05:44:35.225Z,63.18
2016-08-11T05:45:35.231Z,61.46
2016-08-11T05:46:35.238Z,60.5
2016-08-11T05:47:35.643Z,59.75
2016-08-11T05:48:35.252Z,59.66
2016-08-11T05:49:35.262Z,58.59
2016-08-11T05:50:35.275Z,58.11
2016-08-11T05:51:35.284Z,57.14
2016-08-11T05:52:35.282Z,56.2
2016-08-11T05:53:35.299Z,56
2016-08-11T05:54:35.302Z,55.13
2016-08-11T05:55:36.668Z,54.35
2016-08-11T05:56:35.383Z,53.39
2016-08-11T05:57:35.336Z,53.31
2016-08-11T05:58:35.335Z,52.64
2016-08-11T05:59:35.346Z,52.15
2016-08-11T06:00:35.356Z,50.92
2016-08-11T06:01:35.370Z,50.34
2016-08-11T06:02:35.379Z,48.78
2016-08-11T06:03:35.389Z,48.39
2016-08-11T06:04:35.392Z,47.64
2016-08-11T06:05:35.893Z,47.03
2016-08-11T06:06:36.917Z,46.58
2016-08-11T06:07:36.251Z,45.61
2016-08-11T06:08:35.430Z,45.21
2016-08-11T06:09:35.438Z,44.73
2016-08-11T06:10:35.447Z,44.17
2016-08-11T06:11:35.705Z,43.59
2016-08-11T06:12:35.471Z,43.2
2016-08-11T06:13:35.481Z,42.44
2016-08-11T06:14:35.490Z,41.86
2016-08-11T06:15:35.500Z,41.57
2016-08-11T06:16:35.510Z,41.2
2016-08-11T06:17:35.515Z,40.62
2016-08-11T06:18:35.529Z,40.23
2016-08-11T06:19:35.535Z,39.96
2016-08-11T06:20:35.549Z,39.57
2016-08-11T06:21:35.556Z,39.37
2016-08-11T06:22:35.571Z,39.18
2016-08-11T06:23:35.582Z,38.89
2016-08-11T06:24:35.600Z,38.7
2016-08-11T06:25:35.606Z,38.4
2016-08-11T06:26:35.616Z,38.31
2016-08-11T06:27:35.624Z,37.72
2016-08-11T06:28:35.633Z,37.54
2016-08-11T06:29:35.642Z,37.35
2016-08-11T06:30:35.658Z,37.54
2016-08-11T06:32:35.688Z,36.88
2016-08-11T06:33:35.692Z,36.71
2016-08-11T06:34:35.701Z,35.91
2016-08-11T06:35:35.714Z,34.86
2016-08-11T06:36:35.728Z,35.34
2016-08-11T06:37:35.736Z,35.25
2016-08-11T06:38:35.751Z,34.95
2016-08-11T06:39:35.759Z,34.78
2016-08-11T06:40:35.786Z,34.48
2016-08-11T06:41:35.794Z,34.09
2016-08-11T06:42:35.803Z,33.31
2016-08-11T06:43:35.811Z,33.29
2016-08-11T06:44:35.826Z,33.49
2016-08-11T06:45:35.849Z,33.51
2016-08-11T06:46:35.853Z,33.31
2016-08-11T06:47:35.863Z,33.14
2016-08-11T06:48:35.871Z,32.57
2016-08-11T06:49:35.884Z,32.08
2016-08-11T06:50:35.904Z,32.06
2016-08-11T06:51:35.915Z,31.88
2016-08-11T06:52:35.923Z,31.79
2016-08-11T06:53:35.933Z,31.88
2016-08-11T06:54:35.950Z,31.1
2016-08-11T06:55:35.967Z,31.09
2016-08-11T06:56:35.980Z,31.49
2016-08-11T06:57:35.991Z,31.1
2016-08-11T06:58:36.006Z,31.12
2016-08-11T06:59:36.019Z,30.83
2016-08-11T07:00:36.032Z,30.44
2016-08-11T07:01:36.045Z,30.54
2016-08-11T07:02:36.060Z,30.54
2016-08-11T07:03:36.070Z,30.16
2016-08-11T07:04:36.089Z,29.39
2016-08-11T07:05:36.101Z,29.79
2016-08-11T07:06:36.120Z,29.39
2016-08-11T07:07:36.131Z,28.91
2016-08-11T07:08:36.141Z,28.91
2016-08-11T07:09:36.161Z,29.28
2016-08-11T07:10:36.172Z,29.59
2016-08-11T07:11:36.191Z,29.3
2016-08-11T07:12:36.205Z,29.3
2016-08-11T07:13:36.213Z,29.02
2016-08-11T07:14:37.602Z,28.92
2016-08-11T07:15:36.249Z,28.61
2016-08-11T07:16:36.259Z,28.63
2016-08-11T07:17:36.747Z,27.75
2016-08-11T07:18:36.289Z,27.65
2016-08-11T07:19:36.314Z,27.65
2016-08-11T07:20:36.321Z,27.06
2016-08-11T07:21:36.335Z,26.77
2016-08-11T07:23:36.392Z,27.26
2016-08-11T07:24:36.386Z,27.45
2016-08-11T07:25:36.394Z,26.87
2016-08-11T07:26:36.829Z,26.29
2016-08-11T07:27:36.422Z,26.28
2016-08-11T07:28:36.436Z,26.1
2016-08-11T07:29:36.454Z,25.32
2016-08-11T07:30:36.466Z,25.31
2016-08-11T07:31:36.482Z,26.09
2016-08-11T07:32:36.497Z,25.68
2016-08-11T07:33:36.510Z,26.27
2016-08-11T07:34:36.529Z,25.2
2016-08-11T07:35:36.542Z,25.39
2016-08-11T07:36:36.559Z,25.18
2016-08-11T07:37:36.569Z,25.76
2016-08-11T07:38:36.702Z,25.47
2016-08-11T07:39:36.608Z,26.25
2016-08-11T07:40:36.619Z,26.25
2016-08-11T07:41:36.629Z,26.35
2016-08-11T07:42:36.642Z,26.37
2016-08-11T07:43:36.657Z,25.98
2016-08-11T07:44:36.672Z,26.17
2016-08-11T07:45:36.687Z,25.68
2016-08-11T07:46:36.700Z,26.07
2016-08-11T07:47:36.714Z,26.18
2016-08-11T07:48:36.734Z,25.2
2016-08-11T07:49:36.743Z,25.78
2016-08-11T07:50:36.760Z,25.49
2016-08-11T07:51:36.774Z,25.18
2016-08-11T07:52:37.043Z,25.86
2016-08-11T07:53:36.802Z,25.95
2016-08-11T07:56:36.847Z,25.86
2016-08-11T07:57:37.263Z,26.06
2016-08-11T07:58:37.228Z,25.67
2016-08-11T07:59:36.898Z,26.04
2016-08-11T08:00:36.912Z,25.95
2016-08-11T08:01:37.183Z,26.04
2016-08-11T08:02:36.944Z,25.65
2016-08-11T08:04:37.231Z,26.24
2016-08-11T08:05:37.035Z,26.73
2016-08-11T08:06:37.004Z,26.53
2016-08-11T08:07:37.023Z,25.85
2016-08-11T08:08:37.035Z,26.04
2016-08-11T08:09:37.055Z,26.14
2016-08-11T08:10:37.069Z,26.14
2016-08-11T08:11:37.084Z,25.96
2016-08-11T08:12:37.097Z,26.25
2016-08-11T08:13:37.176Z,26.07
2016-08-11T08:14:37.138Z,25.68
2016-08-11T08:15:37.154Z,25.29
2016-08-11T08:16:37.865Z,25.39
2016-08-11T08:17:37.187Z,25.21
2016-08-11T08:18:37.202Z,24.81
2016-08-11T08:19:37.220Z,24.92
2016-08-11T08:20:37.235Z,24.71
2016-08-11T08:21:37.251Z,24.62
2016-08-11T08:22:37.271Z,24.22
2016-08-11T08:23:37.291Z,24.41
2016-08-11T08:24:37.308Z,24.41
2016-08-11T08:25:37.321Z,24.02
2016-08-11T08:26:37.339Z,24.32
2016-08-11T08:27:37.349Z,23.44
2016-08-11T08:28:37.373Z,24.49
2016-08-11T08:29:37.383Z,23.99
2016-08-11T08:30:38.092Z,24.27
2016-08-11T08:31:37.415Z,24.16
2016-08-11T08:32:37.438Z,24.24
2016-08-11T08:33:37.443Z,24.54
2016-08-11T08:34:37.457Z,24.44
2016-08-11T08:35:37.467Z,24.23
2016-08-11T08:36:37.491Z,24.33
2016-08-11T08:37:38.200Z,24.72
2016-08-11T08:38:37.508Z,24.13
2016-08-11T08:39:37.534Z,24.62
2016-08-11T08:40:37.540Z,24.43
2016-08-11T08:41:37.554Z,24.43
2016-08-11T08:42:37.569Z,24.22
2016-08-11T08:43:37.585Z,24.98
2016-08-11T08:44:37.594Z,24.69
2016-08-11T08:45:37.613Z,25.26
2016-08-11T08:46:37.619Z,24.97
2016-08-11T08:47:37.637Z,25.26
2016-08-11T08:48:37.650Z,25.74
2016-08-11T08:49:37.661Z,25.54
2016-08-11T08:50:37.677Z,26.11
2016-08-11T08:51:37.679Z,26.49
2016-08-11T08:52:37.693Z,26.86
2016-08-11T08:53:37.703Z,27.73
2016-08-11T08:54:37.717Z,27.45
2016-08-11T08:55:37.724Z,28.02
2016-08-11T08:56:37.734Z,27.62
2016-08-11T08:57:37.747Z,28.02
2016-08-11T08:58:37.753Z,28.02
2016-08-11T08:59:37.759Z,28.09
2016-08-11T09:00:37.770Z,27.71
2016-08-11T09:01:37.781Z,28.47
2016-08-11T09:02:37.791Z,28.56
2016-08-11T09:03:37.801Z,28.66
2016-08-11T09:04:37.805Z,29.03
2016-08-11T09:05:37.820Z,29.41
2016-08-11T09:06:37.834Z,29.2
2016-08-11T09:07:37.826Z,30.07
2016-08-11T09:08:37.841Z,30.36
2016-08-11T09:09:37.848Z,30.73
2016-08-11T09:10:52.772Z,31.02
2016-08-11T09:11:37.862Z,31.02
2016-08-11T09:12:38.913Z,31.02
2016-08-11T09:13:37.872Z,31.02
2016-08-11T09:14:37.878Z,31.51
2016-08-11T09:15:38.485Z,31.78
2016-08-11T09:16:37.893Z,32.07
2016-08-11T09:17:37.898Z,32.07
2016-08-11T09:18:37.904Z,32.65
2016-08-11T09:19:52.826Z,32.65
2016-08-11T09:20:37.913Z,32.94
2016-08-11T09:22:37.922Z,33.12
2016-08-11T09:23:37.932Z,33.22
2016-08-11T09:24:37.933Z,33.31
2016-08-11T09:25:38.199Z,33.8
2016-08-11T09:26:38.248Z,33.78
2016-08-11T09:27:37.953Z,33.89
2016-08-11T09:28:37.955Z,33.78
2016-08-11T09:30:37.964Z,34.16
2016-08-11T09:31:37.975Z,34.06
2016-08-11T09:32:39.507Z,34.06
2016-08-11T09:33:38.054Z,34.36
2016-08-11T09:34:38.554Z,34.53
2016-08-11T09:35:38.565Z,34.45
2016-08-11T09:36:37.988Z,34.53
2016-08-11T09:37:38.010Z,34.14
2016-08-11T09:38:37.997Z,34.24
2016-08-11T09:39:37.998Z,34.24
2016-08-11T09:40:39.556Z,34.05
2016-08-11T09:41:38.370Z,34.14
2016-08-11T09:42:38.012Z,34.14
2016-08-11T09:43:38.289Z,34.14
2016-08-11T09:45:38.022Z,34.14
2016-08-11T09:46:38.501Z,34.14
2016-08-11T09:47:38.341Z,34.05
2016-08-11T09:48:38.029Z,34.34
2016-08-11T09:49:38.038Z,34.45
2016-08-11T09:50:38.036Z,34.16
2016-08-11T09:51:38.040Z,33.68
2016-08-11T09:52:38.055Z,33.2
2016-08-11T09:53:38.061Z,33.29
2016-08-11T09:54:38.057Z,33.29
2016-08-11T09:55:38.058Z,33.2
2016-08-11T09:56:38.060Z,33.39
2016-08-11T09:57:38.067Z,33.48
2016-08-11T09:58:38.087Z,33.28
2016-08-11T10:00:38.079Z,33.28
2016-08-11T10:01:38.084Z,33.07
2016-08-11T10:02:38.101Z,33.84
2016-08-11T10:03:38.102Z,33.92
2016-08-11T10:04:38.092Z,34.11
2016-08-11T10:05:38.095Z,34.5
2016-08-11T10:06:38.099Z,34.38
2016-08-11T10:07:38.096Z,34.58
2016-08-11T10:08:38.106Z,34.58
2016-08-11T10:09:38.107Z,34.48
2016-08-11T10:10:38.119Z,34.86
2016-08-11T10:11:38.109Z,34.67
2016-08-11T10:12:38.132Z,35.44
2016-08-11T10:13:38.125Z,35.83
2016-08-11T10:15:38.125Z,35.83
2016-08-11T10:16:38.122Z,35.54
2016-08-11T10:17:38.127Z,35.83
2016-08-11T10:18:38.128Z,35.54
2016-08-11T10:19:38.128Z,35.06
2016-08-11T10:20:38.135Z,34.96
2016-08-11T10:21:38.139Z,34.48
2016-08-11T10:22:38.142Z,34.59
2016-08-11T10:23:38.140Z,34.78
2016-08-11T10:24:38.139Z,34.4
2016-08-11T10:25:38.148Z,34.59
2016-08-11T10:26:38.148Z,34.61
2016-08-11T10:27:38.148Z,34.61
2016-08-11T10:28:38.156Z,34.13
2016-08-11T10:30:38.159Z,33.95
2016-08-11T10:31:38.762Z,34.14
2016-08-11T10:32:38.161Z,34.14
2016-08-11T10:33:38.167Z,34.14
2016-08-11T10:34:38.167Z,34.45
2016-08-11T10:35:38.865Z,33.78
2016-08-11T10:36:38.172Z,33.2
2016-08-11T10:37:38.873Z,33.2
2016-08-11T10:38:38.177Z,33.5
2016-08-11T10:39:38.189Z,32.92
2016-08-11T10:40:38.745Z,33.6
2016-08-11T10:41:38.188Z,33.5
2016-08-11T10:42:38.195Z,33.31
2016-08-11T10:43:38.208Z,33.22
2016-08-11T10:45:38.205Z,33.12
2016-08-11T10:46:38.205Z,33.4
2016-08-11T10:47:38.213Z,33.22
2016-08-11T10:48:38.217Z,33.22
2016-08-11T10:50:39.778Z,32.82
2016-08-11T10:51:39.115Z,32.82
2016-08-11T10:52:38.224Z,32.64
2016-08-11T10:53:38.230Z,32.24
2016-08-11T10:54:38.239Z,32.06
2016-08-11T10:55:38.669Z,32.06
2016-08-11T10:56:38.240Z,31.76
2016-08-11T10:57:38.260Z,31.09
2016-08-11T10:58:38.256Z,31.07
2016-08-11T10:59:38.673Z,31.85
2016-08-11T11:00:38.457Z,31.75
2016-08-11T11:01:38.263Z,31.54
2016-08-11T11:02:38.273Z,31.45
2016-08-11T11:03:38.266Z,32.21
2016-08-11T11:04:38.272Z,33.26
2016-08-11T11:05:38.285Z,34.4
2016-08-11T11:06:38.285Z,34.86
2016-08-11T11:07:38.278Z,35.42
2016-08-11T11:08:38.285Z,36.1
2016-08-11T11:09:38.291Z,36.95
2016-08-11T11:10:38.289Z,37.51
2016-08-11T11:11:38.291Z,37.41
2016-08-11T11:12:38.297Z,37.7
2016-08-11T11:13:38.303Z,37.6
2016-08-11T11:14:38.300Z,37.99
2016-08-11T11:15:38.304Z,38.26
2016-08-11T11:16:38.303Z,38.47
2016-08-11T11:17:38.305Z,38.47
2016-08-11T11:18:38.305Z,38.56
2016-08-11T11:19:38.307Z,38.47
2016-08-11T11:20:38.313Z,38.95
2016-08-11T11:21:38.318Z,38.18
2016-08-11T11:22:38.312Z,38.2
2016-08-11T11:23:38.322Z,37.91
2016-08-11T11:24:38.318Z,37.79
2016-08-11T11:25:38.319Z,37.81
2016-08-11T11:26:38.319Z,37.72
2016-08-11T11:27:38.330Z,37.72
2016-08-11T11:28:38.327Z,37.52
2016-08-11T11:29:38.330Z,37.45
2016-08-11T11:30:39.024Z,37.06
2016-08-11T11:31:38.328Z,37.16
2016-08-11T11:32:38.327Z,36.49
2016-08-11T11:33:38.349Z,35.81
2016-08-11T11:34:38.332Z,36.49
2016-08-11T11:35:38.339Z,35.83
2016-08-11T11:36:38.337Z,35.64
2016-08-11T11:37:38.357Z,35.64
2016-08-11T11:38:38.345Z,35.73
2016-08-11T11:39:38.343Z,35.25
2016-08-11T11:40:38.343Z,35.25
2016-08-11T11:41:38.350Z,35.73
2016-08-11T11:42:38.350Z,35.64
2016-08-11T11:43:38.350Z,35.64
2016-08-11T11:44:38.351Z,35.44
2016-08-11T11:45:38.352Z,35.54
2016-08-11T11:46:38.353Z,35.73
2016-08-11T11:47:38.363Z,35.44
2016-08-11T11:48:38.360Z,35.44
2016-08-11T11:49:38.510Z,35.44
2016-08-11T11:50:39.215Z,35.64
2016-08-11T11:51:38.368Z,35.83
2016-08-11T11:52:38.369Z,36.1
2016-08-11T11:53:38.367Z,36
2016-08-11T11:54:38.367Z,35.91
2016-08-11T11:55:38.371Z,36
2016-08-11T11:56:38.372Z,35.81
2016-08-11T11:57:39.088Z,35.81
2016-08-11T11:58:38.623Z,35.62
2016-08-11T11:59:38.380Z,35.91
2016-08-11T12:00:38.378Z,35.81
2016-08-11T12:01:38.379Z,36.1
2016-08-11T12:02:38.380Z,35.52
2016-08-11T12:03:38.386Z,35.83
2016-08-11T12:04:38.381Z,35.73
2016-08-11T12:05:38.382Z,35.64
2016-08-11T12:06:38.387Z,35.73
2016-08-11T12:07:38.392Z,35.64
2016-08-11T12:08:39.910Z,35.73
2016-08-11T12:09:38.394Z,35.44
2016-08-11T12:10:38.390Z,35.46
2016-08-11T12:11:38.396Z,35.08
2016-08-11T12:12:38.399Z,34.59
2016-08-11T12:13:38.407Z,34.98
2016-08-11T12:14:38.589Z,34.88
2016-08-11T12:15:38.419Z,34.78
2016-08-11T12:16:38.422Z,34.88
2016-08-11T12:17:38.745Z,34.77
2016-08-11T12:18:39.472Z,34.86
2016-08-11T12:19:39.754Z,34.96
2016-08-11T12:20:38.423Z,34.86
2016-08-11T12:21:38.768Z,34.58
2016-08-11T12:22:38.425Z,34.56
2016-08-11T12:23:38.421Z,34.56
2016-08-11T12:24:38.420Z,34.48
2016-08-11T12:25:38.422Z,34.67
2016-08-11T12:26:38.427Z,34.67
2016-08-11T12:27:38.429Z,35.44
2016-08-11T12:28:39.120Z,35.25
2016-08-11T12:29:38.427Z,35.25
2016-08-11T12:30:38.434Z,34.86
2016-08-11T12:31:38.434Z,34.86
2016-08-11T12:32:38.434Z,34.77
2016-08-11T12:33:38.437Z,34.69
2016-08-11T12:34:38.440Z,34.5
2016-08-11T12:35:38.435Z,34.21
2016-08-11T12:36:38.441Z,34.11
2016-08-11T12:37:38.442Z,34.21
2016-08-11T12:38:38.448Z,33.82
2016-08-11T12:39:38.447Z,33.25
2016-08-11T12:40:38.451Z,33.15
2016-08-11T12:41:38.452Z,33.25
2016-08-11T12:42:38.451Z,33.26
2016-08-11T12:43:38.456Z,33.36
2016-08-11T12:44:38.459Z,33.45
2016-08-11T12:45:38.460Z,33.17
2016-08-11T12:46:39.154Z,33.17
2016-08-11T12:47:38.462Z,32.97
2016-08-11T12:48:38.465Z,32.6
2016-08-11T12:49:38.471Z,32.31
2016-08-11T12:50:38.469Z,32.41
2016-08-11T12:51:38.477Z,32.49
2016-08-11T12:52:38.474Z,32.03
2016-08-11T12:53:38.482Z,32.03
2016-08-11T12:54:38.480Z,32.29
2016-08-11T12:55:38.495Z,32.2
2016-08-11T12:56:38.483Z,32.68
2016-08-11T12:57:38.490Z,32.59
2016-08-11T12:58:38.494Z,32.87
2016-08-11T12:59:38.493Z,32.68
2016-08-11T13:00:38.509Z,33.07
2016-08-11T13:01:38.499Z,33.36
2016-08-11T13:02:38.499Z,33.34
2016-08-11T13:03:38.505Z,33.15
2016-08-11T13:04:38.504Z,33.15
2016-08-11T13:05:38.508Z,33.53
2016-08-11T13:06:39.361Z,33.25
2016-08-11T13:07:38.512Z,33.44
2016-08-11T13:09:38.519Z,33.34
2016-08-11T13:10:38.717Z,33.53
2016-08-11T13:11:38.518Z,32.95
2016-08-11T13:12:38.520Z,33.05
2016-08-11T13:13:38.527Z,32.78
2016-08-11T13:14:38.524Z,32.68
2016-08-11T13:15:39.124Z,32.68
2016-08-11T13:16:38.527Z,32.2
2016-08-11T13:17:38.536Z,32.2
2016-08-11T13:18:38.539Z,32.2
2016-08-11T13:19:38.537Z,32.1
2016-08-11T13:20:38.539Z,31.63